Terminal Aerodrome Forecast
Issued by NWS

Home | Current Version | Previous Version | Text Only | Print | Product List | Glossary On
Versions: 1 2 3 4 5 6 7 8 9 10 11 12 13 14 15 16 17 18
000
FTUS43 KDMX 261135
TAFOTM
TAF
KOTM 261135Z 2612/2712 VRB04KT P6SM VCSH SCT060 BKN100
     FM261500 08008KT P6SM SCT050 OVC100
     FM270000 10005KT P6SM VCTS OVC025CB
     FM270800 12005KT P6SM OVC040=

USA.gov is the U.S. government's official web portal to all federal, state and local government web resources and services.